»·PEaware :: N5205X KBUR-KLAS

N5205X :: KBUR-KLAS

FLIGHT INFORMATION

Flight Status: Arrived
Operator: Privately registered:
United States
More flights under this callsign
Pilot: Martin B. (29991)
Aircraft: CIRRUS VISIONJET
(SF50)
More flights by this aircraft type
Origin: KBUR Bob Hope-Burbank
United States
Destination: KLAS McCarran Intl
United States
More flights between these airports :: More routes between these airports
Route: +SLAPP2 MISEN KEPEC6
File this flight plan on PilotEdge
Remarks:
Altitude:
(Current/Filed)
24,000ft
Speed:
(Current/Filed)
240kts
Departed: 14-Nov-20 09:01 AM
Arrived: 14-Nov-20 11:03 AM
Distance/Time
Traveled:
193nm/2:02
Distance/Time
To Go:
Arrived

Flight Plot

Page will automatically refresh every two minutes.

Flight plan parsing failed; only flown route is shown


Map Options




Map Legend


Flown Route
Filed Route
Departure Airport
Arrival Airport
Navaid (VOR, NDB)
Fix

Horizontal Profiles

Position Reports

Time Latitude Longitude Heading Altitude Ground
Speed
14-Nov-20 08:30 34.203296 -118.360669 153 742ft 0kts
14-Nov-20 08:31 34.203296 -118.360669 153 742ft 0kts
14-Nov-20 08:32 34.203296 -118.360669 153 742ft 0kts
14-Nov-20 08:33 34.203296 -118.360669 153 742ft 0kts
14-Nov-20 08:34 34.203296 -118.360669 153 742ft 0kts
14-Nov-20 08:35 34.203296 -118.360669 153 742ft 0kts
14-Nov-20 08:36 34.203296 -118.360669 153 742ft 0kts
14-Nov-20 08:37 34.203296 -118.360669 153 742ft 0kts
14-Nov-20 08:38 34.203296 -118.360669 153 742ft 0kts
14-Nov-20 08:39 34.203296 -118.360669 153 742ft 0kts
14-Nov-20 08:40 34.203296 -118.360669 153 742ft 0kts
14-Nov-20 08:41 34.203296 -118.360669 153 742ft 0kts
14-Nov-20 08:42 34.203296 -118.360669 153 742ft 0kts
14-Nov-20 08:43 34.203296 -118.360669 153 742ft 0kts
14-Nov-20 08:44 34.203296 -118.360669 153 742ft 0kts
14-Nov-20 08:45 34.203296 -118.360669 153 742ft 0kts
14-Nov-20 08:46 34.203296 -118.360669 153 742ft 0kts
14-Nov-20 08:47 34.203296 -118.360669 153 742ft 0kts
14-Nov-20 08:48 34.203296 -118.360669 153 742ft 0kts
14-Nov-20 08:49 34.203296 -118.360669 153 742ft 0kts
14-Nov-20 08:50 34.203296 -118.360669 153 742ft 0kts
14-Nov-20 08:51 34.203296 -118.360669 153 742ft 0kts
14-Nov-20 08:52 34.203296 -118.360669 153 742ft 0kts
14-Nov-20 08:53 34.203255 -118.360568 97 742ft 0kts
14-Nov-20 08:54 34.203254 -118.360568 96 742ft 0kts
14-Nov-20 08:55 34.204560 -118.359793 16 746ft 13kts
14-Nov-20 08:56 34.207853 -118.360385 344 762ft 16kts
14-Nov-20 08:57 34.211240 -118.361304 1 777ft 0kts
14-Nov-20 08:58 34.211405 -118.361279 25 777ft 0kts
14-Nov-20 08:59 34.211132 -118.360154 166 776ft 29kts
14-Nov-20 09:00 34.188855 -118.356914 166 1724ft 84kts
14-Nov-20 09:01 34.167363 -118.352506 168 3479ft 77kts
14-Nov-20 09:02 34.134954 -118.346178 164 3979ft 178kts
14-Nov-20 09:03 34.081523 -118.333364 166 3965ft 200kts
14-Nov-20 09:29 34.203296 -118.360669 153 742ft 0kts
14-Nov-20 09:30 34.203296 -118.360669 153 742ft 0kts
14-Nov-20 09:31 34.203296 -118.360669 153 742ft 0kts
14-Nov-20 09:32 34.203296 -118.360669 153 742ft 0kts
14-Nov-20 09:33 34.203296 -118.360669 153 742ft 0kts
14-Nov-20 09:34 34.203296 -118.360669 153 742ft 0kts
14-Nov-20 09:35 34.203296 -118.360669 153 742ft 0kts
14-Nov-20 09:36 34.203296 -118.360669 153 742ft 0kts
14-Nov-20 09:37 34.203296 -118.360669 153 742ft 0kts
14-Nov-20 09:38 34.203296 -118.360669 153 742ft 0kts
14-Nov-20 09:39 34.203296 -118.360669 153 742ft 0kts
14-Nov-20 09:40 34.203296 -118.360669 153 742ft 0kts
14-Nov-20 09:41 34.203296 -118.360669 153 742ft 0kts
14-Nov-20 09:42 34.203296 -118.360669 153 742ft 0kts
14-Nov-20 09:43 34.203296 -118.360669 153 742ft 0kts
14-Nov-20 09:44 34.203296 -118.360669 153 742ft 0kts
14-Nov-20 09:45 34.203223 -118.360569 120 742ft 5kts
14-Nov-20 09:46 34.206274 -118.359926 346 754ft 14kts
14-Nov-20 09:47 34.209911 -118.360941 349 771ft 14kts
14-Nov-20 09:48 34.211779 -118.361419 11 779ft 7kts
14-Nov-20 09:49 34.211905 -118.361358 27 779ft 0kts
14-Nov-20 09:50 34.211899 -118.360377 163 779ft 0kts
14-Nov-20 09:51 34.187680 -118.366366 222 1971ft 140kts
14-Nov-20 09:52 34.157120 -118.401322 223 4008ft 175kts
14-Nov-20 09:53 34.120505 -118.441392 222 3993ft 176kts
14-Nov-20 09:55 34.083710 -118.480104 222 3997ft 174kts
14-Nov-20 09:56 34.097064 -118.511744 353 4964ft 151kts
14-Nov-20 09:57 34.138221 -118.519876 352 6987ft 151kts
14-Nov-20 09:58 34.178212 -118.516710 28 8942ft 158kts
14-Nov-20 09:59 34.215472 -118.489848 24 10398ft 157kts
14-Nov-20 10:00 34.253146 -118.462734 22 12410ft 161kts
14-Nov-20 10:01 34.292050 -118.434862 22 14422ft 165kts
14-Nov-20 10:02 34.331694 -118.406345 21 16430ft 166kts
14-Nov-20 10:03 34.370189 -118.378569 19 18420ft 157kts
14-Nov-20 10:04 34.411079 -118.356237 12 19231ft 180kts
14-Nov-20 10:05 34.457974 -118.334493 12 19225ft 191kts
14-Nov-20 10:06 34.505069 -118.281966 25 19265ft 249kts
14-Nov-20 10:07 34.565619 -118.234383 25 19389ft 266kts
14-Nov-20 10:08 34.628181 -118.184538 25 19537ft 271kts
14-Nov-20 10:09 34.691236 -118.134292 25 19687ft 273kts
14-Nov-20 10:09 34.721834 -118.061871 73 18929ft 327kts
14-Nov-20 10:11 34.729483 -117.930685 82 18067ft 301kts
14-Nov-20 10:12 34.730013 -117.842157 76 20392ft 238kts
14-Nov-20 10:12 34.747390 -117.778287 66 21139ft 247kts
14-Nov-20 10:14 34.773458 -117.677435 66 21248ft 285kts
14-Nov-20 10:14 34.793862 -117.599114 66 21262ft 295kts
14-Nov-20 10:16 34.818048 -117.485115 92 21274ft 313kts
14-Nov-20 10:16 34.803592 -117.397932 94 21264ft 315kts
14-Nov-20 10:17 34.826440 -117.301756 71 21264ft 304kts
14-Nov-20 10:18 34.846674 -117.201838 70 21262ft 304kts
14-Nov-20 10:19 34.893140 -117.122734 64 21260ft 301kts
14-Nov-20 10:20 34.919876 -117.024862 83 21248ft 315kts
14-Nov-20 10:21 34.909706 -116.917521 96 21254ft 323kts
14-Nov-20 10:22 34.895249 -116.809729 82 21258ft 317kts
14-Nov-20 10:23 34.936354 -116.724599 57 21260ft 304kts
14-Nov-20 10:24 34.962539 -116.627226 36 21264ft 290kts
14-Nov-20 10:25 35.020226 -116.558658 34 21254ft 289kts
14-Nov-20 10:26 35.066182 -116.474363 47 21254ft 302kts
14-Nov-20 10:27 35.112364 -116.389923 33 21268ft 288kts
14-Nov-20 10:28 35.168740 -116.319746 35 21257ft 291kts
14-Nov-20 10:29 35.225391 -116.248756 34 21257ft 290kts
14-Nov-20 10:30 35.281752 -116.177914 35 21257ft 291kts
14-Nov-20 10:31 35.338212 -116.106799 35 21257ft 290kts
14-Nov-20 10:32 35.394463 -116.035810 35 21257ft 291kts
14-Nov-20 10:33 35.449107 -115.966773 34 19889ft 268kts
14-Nov-20 10:34 35.499415 -115.903355 35 17888ft 251kts
14-Nov-20 10:35 35.547325 -115.842813 36 15608ft 249kts
14-Nov-20 10:36 35.594983 -115.781751 38 13145ft 245kts
14-Nov-20 10:37 35.640129 -115.724506 37 13039ft 246kts
14-Nov-20 10:38 35.691028 -115.658426 39 13037ft 278kts
14-Nov-20 10:39 35.745589 -115.588611 34 13034ft 282kts
14-Nov-20 10:40 35.816636 -115.571253 0 13036ft 266kts
14-Nov-20 10:41 35.890669 -115.567158 358 13027ft 266kts
14-Nov-20 10:42 35.963451 -115.555112 34 13016ft 282kts
14-Nov-20 10:43 35.999783 -115.472455 60 11157ft 269kts
14-Nov-20 10:44 36.023334 -115.388293 72 11130ft 230kts
14-Nov-20 10:45 36.011895 -115.311788 95 10260ft 235kts
14-Nov-20 10:46 35.997650 -115.232233 95 9024ft 226kts
14-Nov-20 10:47 35.985369 -115.163602 95 9028ft 190kts
14-Nov-20 10:48 35.965384 -115.107472 164 9030ft 194kts
14-Nov-20 10:49 35.913473 -115.126534 205 8215ft 223kts
14-Nov-20 10:50 35.858156 -115.153979 205 8028ft 202kts
14-Nov-20 10:51 35.807483 -115.179025 205 8031ft 191kts
14-Nov-20 10:52 35.805421 -115.223579 312 8034ft 149kts
14-Nov-20 10:53 35.829862 -115.264783 313 8034ft 148kts
14-Nov-20 10:54 35.857614 -115.303035 324 7695ft 163kts
14-Nov-20 10:55 35.892138 -115.326893 6 7785ft 149kts
14-Nov-20 10:56 35.915972 -115.274016 35 6231ft 199kts
14-Nov-20 10:57 35.961560 -115.235669 27 5320ft 183kts
14-Nov-20 10:58 36.003846 -115.210378 24 4428ft 125kts
14-Nov-20 10:59 36.032735 -115.193761 22 3454ft 117kts
14-Nov-20 11:00 36.059961 -115.178928 19 2762ft 78kts
14-Nov-20 11:01 36.078560 -115.168506 23 2171ft 55kts
14-Nov-20 11:02 36.082397 -115.167365 296 2158ft 0kts
14-Nov-20 11:03 36.082397 -115.167365 296 2158ft 0kts
14-Nov-20 11:04 36.081266 -115.169643 239 2167ft 17kts

Navigation Log

Ident Type
Flight plan parsing failed, navigation log unavailable